Stone Harbor, New Jersey
Current Conditions -  °F | °C
As of 5:55 AM on Sunday 23 Nov 2014 (Local Time) from KWWD Reporting Station
Clear Clear  
Wind Chill:   Ceiling: Unl
Heat Index:   Visibility: 10mi
Dew Point: -4°   Wind: 8mph
Humidity: 46%   Direction: 230°SW
Pressure: 30.23"   Gusts: NA
Location:  39.05°N, 74.76°W
Report Text: KWWD 231055Z AUTO 23007KT 10SM CLR 07/M04 A3023 RMK AO1
Loading
Personal Weather Stations






























Interactive Weather Map New forecast layout! Learn more

10-Day Weather Forecast

Advertisements
Track Severe Weather on mobile